sensor_id;sensor_type;location;lat;lon;timestamp;P1;durP1;ratioP1;P2;durP2;ratioP2
1412;SDS011;701;52.526;13.408;2023-08-30T00:00:46;5.60;;;2.53;;
1412;SDS011;701;52.526;13.408;2023-08-30T00:03:12;5.53;;;2.00;;
1412;SDS011;701;52.526;13.408;2023-08-30T00:05:41;5.63;;;2.40;;
1412;SDS011;701;52.526;13.408;2023-08-30T00:08:07;7.53;;;2.88;;
1412;SDS011;701;52.526;13.408;2023-08-30T00:10:33;5.90;;;2.30;;
1412;SDS011;701;52.526;13.408;2023-08-30T00:12:59;5.80;;;2.60;;
1412;SDS011;701;52.526;13.408;2023-08-30T00:15:25;7.22;;;2.17;;
1412;SDS011;701;52.526;13.408;2023-08-30T00:17:51;5.50;;;2.27;;
1412;SDS011;701;52.526;13.408;2023-08-30T00:20:20;6.10;;;2.40;;
1412;SDS011;701;52.526;13.408;2023-08-30T00:22:47;9.00;;;2.28;;
1412;SDS011;701;52.526;13.408;2023-08-30T00:25:13;5.63;;;2.10;;
1412;SDS011;701;52.526;13.408;2023-08-30T00:27:40;5.50;;;2.37;;
1412;SDS011;701;52.526;13.408;2023-08-30T00:30:06;6.20;;;2.25;;
1412;SDS011;701;52.526;13.408;2023-08-30T00:32:34;8.15;;;2.30;;
1412;SDS011;701;52.526;13.408;2023-08-30T00:35:00;6.15;;;2.20;;
1412;SDS011;701;52.526;13.408;2023-08-30T00:37:26;6.65;;;2.13;;
1412;SDS011;701;52.526;13.408;2023-08-30T00:39:52;5.77;;;2.30;;
1412;SDS011;701;52.526;13.408;2023-08-30T00:42:19;5.60;;;2.38;;
1412;SDS011;701;52.526;13.408;2023-08-30T00:44:44;6.97;;;2.22;;
1412;SDS011;701;52.526;13.408;2023-08-30T00:47:10;6.20;;;2.20;;
1412;SDS011;701;52.526;13.408;2023-08-30T00:49:36;5.50;;;2.15;;
1412;SDS011;701;52.526;13.408;2023-08-30T00:52:03;5.50;;;2.40;;
1412;SDS011;701;52.526;13.408;2023-08-30T00:54:32;7.10;;;2.40;;
1412;SDS011;701;52.526;13.408;2023-08-30T00:56:59;6.72;;;2.33;;
1412;SDS011;701;52.526;13.408;2023-08-30T00:59:26;6.35;;;2.67;;
1412;SDS011;701;52.526;13.408;2023-08-30T01:01:53;7.10;;;2.45;;
1412;SDS011;701;52.526;13.408;2023-08-30T01:04:20;6.15;;;2.70;;
1412;SDS011;701;52.526;13.408;2023-08-30T01:06:46;7.03;;;2.50;;
1412;SDS011;701;52.526;13.408;2023-08-30T01:09:14;6.90;;;2.38;;
1412;SDS011;701;52.526;13.408;2023-08-30T01:14:39;6.60;;;2.65;;
1412;SDS011;701;52.526;13.408;2023-08-30T01:17:10;8.15;;;2.60;;
1412;SDS011;701;52.526;13.408;2023-08-30T01:27:34;6.20;;;2.70;;
1412;SDS011;701;52.526;13.408;2023-08-30T01:30:02;7.40;;;2.75;;
1412;SDS011;701;52.526;13.408;2023-08-30T01:32:32;6.77;;;2.83;;
1412;SDS011;701;52.526;13.408;2023-08-30T01:35:01;7.90;;;3.42;;
1412;SDS011;701;52.526;13.408;2023-08-30T01:37:28;6.47;;;3.00;;
1412;SDS011;701;52.526;13.408;2023-08-30T01:39:55;6.72;;;3.00;;
1412;SDS011;701;52.526;13.408;2023-08-30T01:42:22;5.72;;;2.65;;
1412;SDS011;701;52.526;13.408;2023-08-30T01:44:52;6.57;;;2.53;;
1412;SDS011;701;52.526;13.408;2023-08-30T01:47:23;5.53;;;2.40;;
1412;SDS011;701;52.526;13.408;2023-08-30T01:49:52;5.15;;;2.28;;
1412;SDS011;701;52.526;13.408;2023-08-30T01:52:19;5.47;;;2.30;;
1412;SDS011;701;52.526;13.408;2023-08-30T01:54:46;5.70;;;2.22;;
1412;SDS011;701;52.526;13.408;2023-08-30T01:57:13;6.23;;;1.90;;
1412;SDS011;701;52.526;13.408;2023-08-30T01:59:39;5.22;;;2.40;;
1412;SDS011;701;52.526;13.408;2023-08-30T02:02:05;4.60;;;1.90;;
1412;SDS011;701;52.526;13.408;2023-08-30T02:04:30;5.10;;;2.10;;
1412;SDS011;701;52.526;13.408;2023-08-30T02:07:03;5.07;;;2.30;;
1412;SDS011;701;52.526;13.408;2023-08-30T02:09:36;7.13;;;2.20;;
1412;SDS011;701;52.526;13.408;2023-08-30T02:12:10;6.93;;;2.10;;
1412;SDS011;701;52.526;13.408;2023-08-30T02:14:42;4.72;;;2.00;;
1412;SDS011;701;52.526;13.408;2023-08-30T02:17:13;8.37;;;2.20;;
1412;SDS011;701;52.526;13.408;2023-08-30T02:19:42;8.60;;;2.05;;
1412;SDS011;701;52.526;13.408;2023-08-30T02:22:08;5.68;;;2.20;;
1412;SDS011;701;52.526;13.408;2023-08-30T02:24:34;5.10;;;2.05;;
1412;SDS011;701;52.526;13.408;2023-08-30T02:26:59;6.90;;;2.47;;
1412;SDS011;701;52.526;13.408;2023-08-30T02:29:25;5.68;;;2.00;;
1412;SDS011;701;52.526;13.408;2023-08-30T02:31:51;5.67;;;2.20;;
1412;SDS011;701;52.526;13.408;2023-08-30T02:34:20;5.38;;;2.30;;
1412;SDS011;701;52.526;13.408;2023-08-30T02:36:46;5.13;;;2.10;;
1412;SDS011;701;52.526;13.408;2023-08-30T02:39:13;6.30;;;2.40;;
1412;SDS011;701;52.526;13.408;2023-08-30T02:41:40;5.20;;;2.25;;
1412;SDS011;701;52.526;13.408;2023-08-30T02:44:07;5.43;;;2.00;;
1412;SDS011;701;52.526;13.408;2023-08-30T02:46:33;5.85;;;2.30;;
1412;SDS011;701;52.526;13.408;2023-08-30T02:48:59;5.50;;;2.08;;
1412;SDS011;701;52.526;13.408;2023-08-30T02:51:25;7.28;;;2.60;;
1412;SDS011;701;52.526;13.408;2023-08-30T02:53:51;7.30;;;2.03;;
1412;SDS011;701;52.526;13.408;2023-08-30T02:56:17;5.13;;;2.22;;
1412;SDS011;701;52.526;13.408;2023-08-30T02:58:42;6.33;;;2.00;;
1412;SDS011;701;52.526;13.408;2023-08-30T03:01:08;4.90;;;2.10;;
1412;SDS011;701;52.526;13.408;2023-08-30T03:03:34;6.55;;;2.10;;
1412;SDS011;701;52.526;13.408;2023-08-30T03:06:01;5.33;;;2.30;;
1412;SDS011;701;52.526;13.408;2023-08-30T03:08:28;5.40;;;2.05;;
1412;SDS011;701;52.526;13.408;2023-08-30T03:10:54;6.75;;;2.05;;
1412;SDS011;701;52.526;13.408;2023-08-30T03:13:19;7.00;;;2.10;;
1412;SDS011;701;52.526;13.408;2023-08-30T03:15:46;5.50;;;2.35;;
1412;SDS011;701;52.526;13.408;2023-08-30T03:18:12;6.37;;;1.90;;
1412;SDS011;701;52.526;13.408;2023-08-30T03:20:38;5.80;;;2.10;;
1412;SDS011;701;52.526;13.408;2023-08-30T03:23:04;5.60;;;2.20;;
1412;SDS011;701;52.526;13.408;2023-08-30T03:25:31;5.57;;;2.70;;
1412;SDS011;701;52.526;13.408;2023-08-30T03:27:58;7.28;;;2.70;;
1412;SDS011;701;52.526;13.408;2023-08-30T03:30:24;6.47;;;2.47;;
1412;SDS011;701;52.526;13.408;2023-08-30T03:32:51;6.85;;;2.72;;
1412;SDS011;701;52.526;13.408;2023-08-30T03:35:17;5.20;;;2.47;;
1412;SDS011;701;52.526;13.408;2023-08-30T03:37:45;7.97;;;2.97;;
1412;SDS011;701;52.526;13.408;2023-08-30T03:40:11;7.20;;;2.63;;
1412;SDS011;701;52.526;13.408;2023-08-30T03:42:37;5.10;;;2.50;;
1412;SDS011;701;52.526;13.408;2023-08-30T03:45:03;6.13;;;3.05;;
1412;SDS011;701;52.526;13.408;2023-08-30T03:47:30;6.22;;;3.20;;
1412;SDS011;701;52.526;13.408;2023-08-30T03:49:56;7.67;;;3.33;;
1412;SDS011;701;52.526;13.408;2023-08-30T03:52:22;7.63;;;3.28;;
1412;SDS011;701;52.526;13.408;2023-08-30T03:54:48;7.07;;;3.37;;
1412;SDS011;701;52.526;13.408;2023-08-30T03:57:13;7.40;;;3.10;;
1412;SDS011;701;52.526;13.408;2023-08-30T03:59:39;6.70;;;3.27;;
1412;SDS011;701;52.526;13.408;2023-08-30T04:02:05;6.63;;;3.00;;
1412;SDS011;701;52.526;13.408;2023-08-30T04:04:31;6.77;;;3.30;;
1412;SDS011;701;52.526;13.408;2023-08-30T04:06:56;6.68;;;3.38;;
1412;SDS011;701;52.526;13.408;2023-08-30T04:09:22;8.17;;;3.43;;
1412;SDS011;701;52.526;13.408;2023-08-30T04:11:48;6.45;;;3.10;;
1412;SDS011;701;52.526;13.408;2023-08-30T04:14:13;7.90;;;3.20;;
1412;SDS011;701;52.526;13.408;2023-08-30T04:16:40;6.63;;;3.13;;
1412;SDS011;701;52.526;13.408;2023-08-30T04:19:06;6.32;;;3.25;;
1412;SDS011;701;52.526;13.408;2023-08-30T04:21:32;6.63;;;3.15;;
1412;SDS011;701;52.526;13.408;2023-08-30T04:23:58;9.50;;;3.30;;
1412;SDS011;701;52.526;13.408;2023-08-30T04:26:24;6.35;;;3.40;;
1412;SDS011;701;52.526;13.408;2023-08-30T04:28:50;6.85;;;3.10;;
1412;SDS011;701;52.526;13.408;2023-08-30T04:31:16;6.37;;;2.87;;
1412;SDS011;701;52.526;13.408;2023-08-30T04:33:42;7.97;;;3.35;;
1412;SDS011;701;52.526;13.408;2023-08-30T04:36:08;7.50;;;3.20;;
1412;SDS011;701;52.526;13.408;2023-08-30T04:38:34;6.87;;;3.50;;
1412;SDS011;701;52.526;13.408;2023-08-30T04:41:00;7.63;;;3.15;;
1412;SDS011;701;52.526;13.408;2023-08-30T04:43:28;7.00;;;3.45;;
1412;SDS011;701;52.526;13.408;2023-08-30T04:45:54;6.10;;;2.90;;
1412;SDS011;701;52.526;13.408;2023-08-30T04:48:22;7.68;;;3.65;;
1412;SDS011;701;52.526;13.408;2023-08-30T04:50:57;6.03;;;3.30;;
1412;SDS011;701;52.526;13.408;2023-08-30T04:53:25;6.82;;;3.40;;
1412;SDS011;701;52.526;13.408;2023-08-30T04:55:51;8.50;;;3.10;;
1412;SDS011;701;52.526;13.408;2023-08-30T04:58:17;7.25;;;3.20;;
1412;SDS011;701;52.526;13.408;2023-08-30T05:00:43;7.53;;;3.30;;
1412;SDS011;701;52.526;13.408;2023-08-30T05:03:08;5.90;;;3.00;;
1412;SDS011;701;52.526;13.408;2023-08-30T05:05:34;7.40;;;3.28;;
1412;SDS011;701;52.526;13.408;2023-08-30T05:08:00;8.00;;;3.80;;
1412;SDS011;701;52.526;13.408;2023-08-30T05:10:26;9.80;;;4.25;;
1412;SDS011;701;52.526;13.408;2023-08-30T05:12:53;11.95;;;4.47;;
1412;SDS011;701;52.526;13.408;2023-08-30T05:15:18;7.70;;;3.85;;
1412;SDS011;701;52.526;13.408;2023-08-30T05:17:45;6.27;;;3.00;;
1412;SDS011;701;52.526;13.408;2023-08-30T05:20:12;7.60;;;3.28;;
1412;SDS011;701;52.526;13.408;2023-08-30T05:22:38;6.82;;;3.30;;
1412;SDS011;701;52.526;13.408;2023-08-30T05:25:04;6.60;;;3.10;;
1412;SDS011;701;52.526;13.408;2023-08-30T05:27:30;7.10;;;3.10;;
1412;SDS011;701;52.526;13.408;2023-08-30T05:29:56;7.00;;;3.20;;
1412;SDS011;701;52.526;13.408;2023-08-30T05:32:22;7.10;;;3.13;;
1412;SDS011;701;52.526;13.408;2023-08-30T05:35:06;6.50;;;3.07;;
1412;SDS011;701;52.526;13.408;2023-08-30T05:37:58;7.47;;;3.10;;
1412;SDS011;701;52.526;13.408;2023-08-30T05:40:37;7.47;;;3.13;;
1412;SDS011;701;52.526;13.408;2023-08-30T05:43:07;7.10;;;3.20;;
1412;SDS011;701;52.526;13.408;2023-08-30T05:45:33;9.97;;;2.97;;
1412;SDS011;701;52.526;13.408;2023-08-30T05:47:59;7.00;;;2.83;;
1412;SDS011;701;52.526;13.408;2023-08-30T05:50:25;11.13;;;3.30;;
1412;SDS011;701;52.526;13.408;2023-08-30T05:52:51;8.23;;;3.40;;
1412;SDS011;701;52.526;13.408;2023-08-30T05:55:17;9.48;;;3.08;;
1412;SDS011;701;52.526;13.408;2023-08-30T05:57:43;7.18;;;3.35;;
1412;SDS011;701;52.526;13.408;2023-08-30T06:00:09;11.93;;;3.90;;
1412;SDS011;701;52.526;13.408;2023-08-30T06:02:41;8.63;;;3.33;;
1412;SDS011;701;52.526;13.408;2023-08-30T06:05:07;10.65;;;3.45;;
1412;SDS011;701;52.526;13.408;2023-08-30T06:07:33;11.13;;;4.17;;
1412;SDS011;701;52.526;13.408;2023-08-30T06:09:59;9.95;;;3.58;;
1412;SDS011;701;52.526;13.408;2023-08-30T06:12:25;9.55;;;3.58;;
1412;SDS011;701;52.526;13.408;2023-08-30T06:14:51;11.00;;;3.67;;
1412;SDS011;701;52.526;13.408;2023-08-30T06:17:18;12.27;;;3.45;;
1412;SDS011;701;52.526;13.408;2023-08-30T06:19:44;8.82;;;3.28;;
1412;SDS011;701;52.526;13.408;2023-08-30T06:22:11;8.98;;;3.33;;
1412;SDS011;701;52.526;13.408;2023-08-30T06:24:37;6.67;;;2.80;;
1412;SDS011;701;52.526;13.408;2023-08-30T06:27:03;8.98;;;2.60;;
1412;SDS011;701;52.526;13.408;2023-08-30T06:29:29;7.75;;;2.25;;
1412;SDS011;701;52.526;13.408;2023-08-30T06:31:55;7.80;;;2.40;;
1412;SDS011;701;52.526;13.408;2023-08-30T06:34:20;7.18;;;2.42;;
1412;SDS011;701;52.526;13.408;2023-08-30T06:36:47;8.05;;;2.72;;
1412;SDS011;701;52.526;13.408;2023-08-30T06:39:13;6.67;;;2.47;;
1412;SDS011;701;52.526;13.408;2023-08-30T06:41:39;6.45;;;2.33;;
1412;SDS011;701;52.526;13.408;2023-08-30T06:44:05;9.07;;;2.80;;
1412;SDS011;701;52.526;13.408;2023-08-30T06:46:30;5.87;;;2.10;;
1412;SDS011;701;52.526;13.408;2023-08-30T06:48:56;7.95;;;1.90;;
1412;SDS011;701;52.526;13.408;2023-08-30T06:51:22;11.40;;;2.50;;
1412;SDS011;701;52.526;13.408;2023-08-30T06:53:48;6.75;;;2.10;;
1412;SDS011;701;52.526;13.408;2023-08-30T06:56:14;4.72;;;1.95;;
1412;SDS011;701;52.526;13.408;2023-08-30T06:58:40;5.60;;;2.10;;
1412;SDS011;701;52.526;13.408;2023-08-30T07:01:07;6.60;;;2.10;;
1412;SDS011;701;52.526;13.408;2023-08-30T07:03:32;5.47;;;1.92;;
1412;SDS011;701;52.526;13.408;2023-08-30T07:05:58;8.75;;;1.90;;
1412;SDS011;701;52.526;13.408;2023-08-30T07:08:24;4.37;;;1.80;;
1412;SDS011;701;52.526;13.408;2023-08-30T07:10:51;4.30;;;1.70;;
1412;SDS011;701;52.526;13.408;2023-08-30T07:13:16;4.73;;;1.50;;
1412;SDS011;701;52.526;13.408;2023-08-30T07:15:42;4.53;;;1.48;;
1412;SDS011;701;52.526;13.408;2023-08-30T07:18:08;7.82;;;3.60;;
1412;SDS011;701;52.526;13.408;2023-08-30T07:20:35;6.63;;;1.90;;
1412;SDS011;701;52.526;13.408;2023-08-30T07:23:03;5.88;;;1.63;;
1412;SDS011;701;52.526;13.408;2023-08-30T07:25:29;5.78;;;1.80;;
1412;SDS011;701;52.526;13.408;2023-08-30T07:27:56;5.07;;;1.50;;
1412;SDS011;701;52.526;13.408;2023-08-30T07:30:22;4.87;;;1.80;;
1412;SDS011;701;52.526;13.408;2023-08-30T07:32:48;4.65;;;1.92;;
1412;SDS011;701;52.526;13.408;2023-08-30T07:35:13;4.82;;;1.80;;
1412;SDS011;701;52.526;13.408;2023-08-30T07:37:39;4.77;;;1.83;;
1412;SDS011;701;52.526;13.408;2023-08-30T07:40:05;6.55;;;1.85;;
1412;SDS011;701;52.526;13.408;2023-08-30T07:42:32;5.80;;;1.92;;
1412;SDS011;701;52.526;13.408;2023-08-30T07:44:58;5.70;;;1.80;;
1412;SDS011;701;52.526;13.408;2023-08-30T07:47:23;6.05;;;2.00;;
1412;SDS011;701;52.526;13.408;2023-08-30T07:49:49;4.97;;;1.90;;
1412;SDS011;701;52.526;13.408;2023-08-30T07:52:15;5.55;;;2.15;;
1412;SDS011;701;52.526;13.408;2023-08-30T07:54:40;7.03;;;1.60;;
1412;SDS011;701;52.526;13.408;2023-08-30T07:57:07;6.47;;;1.67;;
1412;SDS011;701;52.526;13.408;2023-08-30T07:59:33;5.65;;;1.75;;
1412;SDS011;701;52.526;13.408;2023-08-30T08:02:00;8.03;;;1.57;;
1412;SDS011;701;52.526;13.408;2023-08-30T08:04:26;7.90;;;1.95;;
1412;SDS011;701;52.526;13.408;2023-08-30T08:06:52;4.57;;;1.63;;
1412;SDS011;701;52.526;13.408;2023-08-30T08:09:18;7.87;;;2.60;;
1412;SDS011;701;52.526;13.408;2023-08-30T08:11:44;4.28;;;1.38;;
1412;SDS011;701;52.526;13.408;2023-08-30T08:14:10;4.23;;;1.57;;
1412;SDS011;701;52.526;13.408;2023-08-30T08:16:36;4.45;;;1.65;;
1412;SDS011;701;52.526;13.408;2023-08-30T08:19:02;5.38;;;1.75;;
1412;SDS011;701;52.526;13.408;2023-08-30T08:21:28;5.67;;;1.57;;
1412;SDS011;701;52.526;13.408;2023-08-30T08:23:53;4.90;;;1.60;;
1412;SDS011;701;52.526;13.408;2023-08-30T08:26:19;7.05;;;2.00;;
1412;SDS011;701;52.526;13.408;2023-08-30T08:28:45;7.57;;;1.67;;
1412;SDS011;701;52.526;13.408;2023-08-30T08:31:11;7.82;;;1.80;;
1412;SDS011;701;52.526;13.408;2023-08-30T08:33:36;7.63;;;1.60;;
1412;SDS011;701;52.526;13.408;2023-08-30T08:36:02;4.68;;;1.60;;
1412;SDS011;701;52.526;13.408;2023-08-30T08:38:28;7.03;;;1.50;;
1412;SDS011;701;52.526;13.408;2023-08-30T08:41:00;7.45;;;1.80;;
1412;SDS011;701;52.526;13.408;2023-08-30T08:43:29;3.95;;;1.25;;
1412;SDS011;701;52.526;13.408;2023-08-30T08:45:56;4.50;;;1.50;;
1412;SDS011;701;52.526;13.408;2023-08-30T08:48:28;5.27;;;1.90;;
1412;SDS011;701;52.526;13.408;2023-08-30T08:50:56;4.70;;;1.55;;
1412;SDS011;701;52.526;13.408;2023-08-30T08:53:22;5.70;;;1.58;;
1412;SDS011;701;52.526;13.408;2023-08-30T08:55:48;5.80;;;1.58;;
1412;SDS011;701;52.526;13.408;2023-08-30T08:58:15;9.48;;;3.90;;
1412;SDS011;701;52.526;13.408;2023-08-30T09:00:42;5.03;;;1.70;;
1412;SDS011;701;52.526;13.408;2023-08-30T09:03:08;4.10;;;1.15;;
1412;SDS011;701;52.526;13.408;2023-08-30T09:05:35;4.80;;;1.20;;
1412;SDS011;701;52.526;13.408;2023-08-30T09:08:03;10.23;;;1.38;;
1412;SDS011;701;52.526;13.408;2023-08-30T09:10:31;4.50;;;1.17;;
1412;SDS011;701;52.526;13.408;2023-08-30T09:12:58;4.97;;;1.30;;
1412;SDS011;701;52.526;13.408;2023-08-30T09:15:30;5.32;;;1.27;;
1412;SDS011;701;52.526;13.408;2023-08-30T09:18:00;11.35;;;1.48;;
1412;SDS011;701;52.526;13.408;2023-08-30T09:20:26;5.10;;;1.30;;
1412;SDS011;701;52.526;13.408;2023-08-30T09:22:52;5.30;;;1.63;;
1412;SDS011;701;52.526;13.408;2023-08-30T09:25:24;5.35;;;1.58;;
1412;SDS011;701;52.526;13.408;2023-08-30T09:28:00;6.38;;;1.58;;
1412;SDS011;701;52.526;13.408;2023-08-30T09:30:26;7.93;;;1.70;;
1412;SDS011;701;52.526;13.408;2023-08-30T09:32:52;5.35;;;1.60;;
1412;SDS011;701;52.526;13.408;2023-08-30T09:35:18;4.95;;;2.00;;
1412;SDS011;701;52.526;13.408;2023-08-30T09:37:44;5.57;;;1.93;;
1412;SDS011;701;52.526;13.408;2023-08-30T09:40:10;7.38;;;1.98;;
1412;SDS011;701;52.526;13.408;2023-08-30T09:42:42;5.93;;;1.80;;
1412;SDS011;701;52.526;13.408;2023-08-30T09:45:24;6.90;;;1.95;;
1412;SDS011;701;52.526;13.408;2023-08-30T09:47:50;4.88;;;1.83;;
1412;SDS011;701;52.526;13.408;2023-08-30T09:50:19;5.13;;;1.60;;
1412;SDS011;701;52.526;13.408;2023-08-30T09:52:46;6.20;;;1.88;;
1412;SDS011;701;52.526;13.408;2023-08-30T09:55:14;5.80;;;1.80;;
1412;SDS011;701;52.526;13.408;2023-08-30T09:57:41;4.93;;;1.55;;
1412;SDS011;701;52.526;13.408;2023-08-30T10:00:08;4.10;;;1.47;;
1412;SDS011;701;52.526;13.408;2023-08-30T10:02:37;7.05;;;1.70;;
1412;SDS011;701;52.526;13.408;2023-08-30T10:05:07;5.45;;;1.73;;
1412;SDS011;701;52.526;13.408;2023-08-30T10:07:35;5.13;;;1.63;;
1412;SDS011;701;52.526;13.408;2023-08-30T10:10:02;4.50;;;1.52;;
1412;SDS011;701;52.526;13.408;2023-08-30T10:12:31;4.87;;;1.50;;
1412;SDS011;701;52.526;13.408;2023-08-30T10:14:57;4.50;;;1.65;;
1412;SDS011;701;52.526;13.408;2023-08-30T10:17:25;5.18;;;1.52;;
1412;SDS011;701;52.526;13.408;2023-08-30T10:19:53;4.93;;;1.75;;
1412;SDS011;701;52.526;13.408;2023-08-30T10:22:21;4.35;;;1.60;;
1412;SDS011;701;52.526;13.408;2023-08-30T10:27:30;5.05;;;1.60;;
1412;SDS011;701;52.526;13.408;2023-08-30T10:29:58;4.65;;;1.67;;
1412;SDS011;701;52.526;13.408;2023-08-30T10:32:26;4.20;;;1.42;;
1412;SDS011;701;52.526;13.408;2023-08-30T10:34:52;5.53;;;1.47;;
1412;SDS011;701;52.526;13.408;2023-08-30T10:37:24;3.90;;;1.20;;
1412;SDS011;701;52.526;13.408;2023-08-30T10:39:52;7.47;;;2.00;;
1412;SDS011;701;52.526;13.408;2023-08-30T10:42:21;5.60;;;1.50;;
1412;SDS011;701;52.526;13.408;2023-08-30T10:44:48;6.22;;;1.55;;
1412;SDS011;701;52.526;13.408;2023-08-30T10:47:22;5.80;;;2.17;;
1412;SDS011;701;52.526;13.408;2023-08-30T10:50:03;6.07;;;2.33;;
1412;SDS011;701;52.526;13.408;2023-08-30T10:52:31;5.97;;;1.90;;
1412;SDS011;701;52.526;13.408;2023-08-30T10:55:04;7.03;;;1.70;;
1412;SDS011;701;52.526;13.408;2023-08-30T10:57:31;5.35;;;1.77;;
1412;SDS011;701;52.526;13.408;2023-08-30T11:00:05;4.78;;;2.10;;
1412;SDS011;701;52.526;13.408;2023-08-30T11:02:35;4.78;;;1.60;;
1412;SDS011;701;52.526;13.408;2023-08-30T11:05:02;5.53;;;1.70;;
1412;SDS011;701;52.526;13.408;2023-08-30T11:07:30;5.87;;;2.00;;
1412;SDS011;701;52.526;13.408;2023-08-30T11:09:57;5.28;;;2.03;;
1412;SDS011;701;52.526;13.408;2023-08-30T11:12:23;4.88;;;1.98;;
1412;SDS011;701;52.526;13.408;2023-08-30T11:14:51;5.60;;;1.80;;
1412;SDS011;701;52.526;13.408;2023-08-30T11:17:17;5.25;;;1.92;;
1412;SDS011;701;52.526;13.408;2023-08-30T11:19:44;4.97;;;1.87;;
1412;SDS011;701;52.526;13.408;2023-08-30T11:22:13;6.22;;;1.50;;
1412;SDS011;701;52.526;13.408;2023-08-30T11:24:39;6.35;;;1.98;;
1412;SDS011;701;52.526;13.408;2023-08-30T11:27:05;4.28;;;1.58;;
1412;SDS011;701;52.526;13.408;2023-08-30T11:29:31;4.87;;;1.83;;
1412;SDS011;701;52.526;13.408;2023-08-30T11:31:57;5.75;;;1.80;;
1412;SDS011;701;52.526;13.408;2023-08-30T11:34:23;4.20;;;1.40;;
1412;SDS011;701;52.526;13.408;2023-08-30T11:36:49;6.65;;;1.60;;
1412;SDS011;701;52.526;13.408;2023-08-30T11:39:15;4.97;;;1.80;;
1412;SDS011;701;52.526;13.408;2023-08-30T11:41:42;6.13;;;1.88;;
1412;SDS011;701;52.526;13.408;2023-08-30T11:44:08;4.87;;;1.60;;
1412;SDS011;701;52.526;13.408;2023-08-30T11:46:34;5.90;;;1.70;;
1412;SDS011;701;52.526;13.408;2023-08-30T11:49:00;4.00;;;1.50;;
1412;SDS011;701;52.526;13.408;2023-08-30T11:51:27;7.43;;;2.10;;
1412;SDS011;701;52.526;13.408;2023-08-30T11:53:54;5.87;;;1.70;;
1412;SDS011;701;52.526;13.408;2023-08-30T11:56:22;4.63;;;1.70;;
1412;SDS011;701;52.526;13.408;2023-08-30T11:58:49;4.80;;;1.58;;
1412;SDS011;701;52.526;13.408;2023-08-30T12:01:17;4.75;;;1.35;;
1412;SDS011;701;52.526;13.408;2023-08-30T12:03:44;4.40;;;1.60;;
1412;SDS011;701;52.526;13.408;2023-08-30T12:06:14;4.73;;;1.67;;
1412;SDS011;701;52.526;13.408;2023-08-30T12:08:40;5.40;;;1.60;;
1412;SDS011;701;52.526;13.408;2023-08-30T12:11:16;4.32;;;1.20;;
1412;SDS011;701;52.526;13.408;2023-08-30T12:13:44;5.57;;;1.80;;
1412;SDS011;701;52.526;13.408;2023-08-30T12:16:14;4.97;;;1.50;;
1412;SDS011;701;52.526;13.408;2023-08-30T12:18:42;4.60;;;1.40;;
1412;SDS011;701;52.526;13.408;2023-08-30T12:21:08;4.28;;;1.30;;
1412;SDS011;701;52.526;13.408;2023-08-30T12:23:34;5.03;;;1.77;;
1412;SDS011;701;52.526;13.408;2023-08-30T12:26:01;4.60;;;1.60;;
1412;SDS011;701;52.526;13.408;2023-08-30T12:28:29;4.15;;;1.50;;
1412;SDS011;701;52.526;13.408;2023-08-30T12:30:56;5.82;;;1.80;;
1412;SDS011;701;52.526;13.408;2023-08-30T12:33:23;5.90;;;1.70;;
1412;SDS011;701;52.526;13.408;2023-08-30T12:35:50;6.55;;;1.60;;
1412;SDS011;701;52.526;13.408;2023-08-30T12:38:17;9.48;;;3.20;;
1412;SDS011;701;52.526;13.408;2023-08-30T12:40:44;7.25;;;3.58;;
1412;SDS011;701;52.526;13.408;2023-08-30T12:43:10;6.00;;;2.00;;
1412;SDS011;701;52.526;13.408;2023-08-30T12:45:37;4.70;;;1.50;;
1412;SDS011;701;52.526;13.408;2023-08-30T12:48:07;5.63;;;1.70;;
1412;SDS011;701;52.526;13.408;2023-08-30T12:50:37;5.45;;;1.50;;
1412;SDS011;701;52.526;13.408;2023-08-30T12:53:03;4.18;;;1.45;;
1412;SDS011;701;52.526;13.408;2023-08-30T12:55:30;4.28;;;1.52;;
1412;SDS011;701;52.526;13.408;2023-08-30T12:57:55;6.63;;;1.80;;
1412;SDS011;701;52.526;13.408;2023-08-30T13:00:21;5.07;;;1.60;;
1412;SDS011;701;52.526;13.408;2023-08-30T13:02:48;4.85;;;1.85;;
1412;SDS011;701;52.526;13.408;2023-08-30T13:05:14;4.57;;;1.60;;
1412;SDS011;701;52.526;13.408;2023-08-30T13:07:40;5.50;;;1.50;;
1412;SDS011;701;52.526;13.408;2023-08-30T13:10:06;5.43;;;1.80;;
1412;SDS011;701;52.526;13.408;2023-08-30T13:12:32;7.00;;;2.10;;
1412;SDS011;701;52.526;13.408;2023-08-30T13:14:58;5.70;;;2.20;;
1412;SDS011;701;52.526;13.408;2023-08-30T13:17:24;5.15;;;1.95;;
1412;SDS011;701;52.526;13.408;2023-08-30T13:19:49;8.87;;;2.10;;
1412;SDS011;701;52.526;13.408;2023-08-30T13:22:16;4.85;;;1.90;;
1412;SDS011;701;52.526;13.408;2023-08-30T13:24:43;5.32;;;2.10;;
1412;SDS011;701;52.526;13.408;2023-08-30T13:27:09;4.93;;;1.95;;
1412;SDS011;701;52.526;13.408;2023-08-30T13:29:35;5.40;;;2.17;;
1412;SDS011;701;52.526;13.408;2023-08-30T13:32:01;6.50;;;2.15;;
1412;SDS011;701;52.526;13.408;2023-08-30T13:34:28;6.03;;;2.65;;
1412;SDS011;701;52.526;13.408;2023-08-30T13:36:54;5.43;;;2.03;;
1412;SDS011;701;52.526;13.408;2023-08-30T13:39:19;4.73;;;1.90;;
1412;SDS011;701;52.526;13.408;2023-08-30T13:41:46;7.82;;;1.90;;
1412;SDS011;701;52.526;13.408;2023-08-30T13:44:12;7.28;;;2.00;;
1412;SDS011;701;52.526;13.408;2023-08-30T13:46:38;4.47;;;1.70;;
1412;SDS011;701;52.526;13.408;2023-08-30T13:49:04;4.65;;;1.75;;
1412;SDS011;701;52.526;13.408;2023-08-30T13:51:30;6.00;;;2.00;;
1412;SDS011;701;52.526;13.408;2023-08-30T13:53:56;5.43;;;1.90;;
1412;SDS011;701;52.526;13.408;2023-08-30T13:56:22;5.57;;;1.85;;
1412;SDS011;701;52.526;13.408;2023-08-30T13:58:48;6.60;;;1.90;;
1412;SDS011;701;52.526;13.408;2023-08-30T14:01:14;4.43;;;1.70;;
1412;SDS011;701;52.526;13.408;2023-08-30T14:03:40;5.20;;;2.00;;
1412;SDS011;701;52.526;13.408;2023-08-30T14:06:06;5.55;;;2.20;;
1412;SDS011;701;52.526;13.408;2023-08-30T14:08:31;7.93;;;2.13;;
1412;SDS011;701;52.526;13.408;2023-08-30T14:10:57;8.48;;;2.13;;
1412;SDS011;701;52.526;13.408;2023-08-30T14:13:23;8.60;;;2.10;;
1412;SDS011;701;52.526;13.408;2023-08-30T14:15:49;4.97;;;1.70;;
1412;SDS011;701;52.526;13.408;2023-08-30T14:18:15;4.30;;;1.70;;
1412;SDS011;701;52.526;13.408;2023-08-30T14:20:42;4.55;;;1.70;;
1412;SDS011;701;52.526;13.408;2023-08-30T14:23:08;5.05;;;1.90;;
1412;SDS011;701;52.526;13.408;2023-08-30T14:25:34;5.93;;;1.98;;
1412;SDS011;701;52.526;13.408;2023-08-30T14:28:00;5.13;;;1.30;;
1412;SDS011;701;52.526;13.408;2023-08-30T14:30:27;4.20;;;1.80;;
1412;SDS011;701;52.526;13.408;2023-08-30T14:32:53;6.18;;;1.30;;
1412;SDS011;701;52.526;13.408;2023-08-30T14:35:19;5.87;;;1.57;;
1412;SDS011;701;52.526;13.408;2023-08-30T14:37:49;5.65;;;1.70;;
1412;SDS011;701;52.526;13.408;2023-08-30T14:40:15;4.50;;;1.50;;
1412;SDS011;701;52.526;13.408;2023-08-30T14:42:41;5.47;;;1.52;;
1412;SDS011;701;52.526;13.408;2023-08-30T14:45:07;6.53;;;1.80;;
1412;SDS011;701;52.526;13.408;2023-08-30T14:47:33;7.43;;;1.75;;
1412;SDS011;701;52.526;13.408;2023-08-30T14:49:59;6.22;;;1.88;;
1412;SDS011;701;52.526;13.408;2023-08-30T14:52:29;4.75;;;1.98;;
1412;SDS011;701;52.526;13.408;2023-08-30T14:54:55;7.63;;;1.80;;
1412;SDS011;701;52.526;13.408;2023-08-30T14:57:21;6.13;;;1.90;;
1412;SDS011;701;52.526;13.408;2023-08-30T14:59:49;5.75;;;1.85;;
1412;SDS011;701;52.526;13.408;2023-08-30T15:02:15;4.50;;;1.70;;
1412;SDS011;701;52.526;13.408;2023-08-30T15:04:41;5.57;;;1.60;;
1412;SDS011;701;52.526;13.408;2023-08-30T15:07:06;5.80;;;1.77;;
1412;SDS011;701;52.526;13.408;2023-08-30T15:09:32;4.13;;;1.73;;
1412;SDS011;701;52.526;13.408;2023-08-30T15:11:58;4.80;;;1.97;;
1412;SDS011;701;52.526;13.408;2023-08-30T15:14:24;4.38;;;1.83;;
1412;SDS011;701;52.526;13.408;2023-08-30T15:16:50;4.88;;;1.40;;
1412;SDS011;701;52.526;13.408;2023-08-30T15:19:16;5.13;;;1.80;;
1412;SDS011;701;52.526;13.408;2023-08-30T15:21:42;6.32;;;2.17;;
1412;SDS011;701;52.526;13.408;2023-08-30T15:24:08;5.88;;;1.63;;
1412;SDS011;701;52.526;13.408;2023-08-30T15:26:34;5.40;;;1.50;;